sensor_id;sensor_type;location;lat;lon;timestamp;pressure;altitude;pressure_sealevel;temperature;humidity
53647;BME280;39550;52.230;5.194;2023-11-19T00:02:19;100592.28;;;7.74;99.28
53647;BME280;39550;52.230;5.194;2023-11-19T00:04:45;100587.19;;;7.75;99.86
53647;BME280;39550;52.230;5.194;2023-11-19T00:07:10;100576.00;;;7.70;99.33
53647;BME280;39550;52.230;5.194;2023-11-19T00:09:38;100581.22;;;7.76;99.96
53647;BME280;39550;52.230;5.194;2023-11-19T00:12:05;100589.75;;;7.75;99.44
53647;BME280;39550;52.230;5.194;2023-11-19T00:14:31;100601.75;;;7.76;99.79
53647;BME280;39550;52.230;5.194;2023-11-19T00:16:56;100606.91;;;7.79;100.00
53647;BME280;39550;52.230;5.194;2023-11-19T00:19:22;100600.06;;;7.78;99.73
53647;BME280;39550;52.230;5.194;2023-11-19T00:21:47;100605.22;;;7.80;100.00
53647;BME280;39550;52.230;5.194;2023-11-19T00:24:13;100591.50;;;7.79;99.97
53647;BME280;39550;52.230;5.194;2023-11-19T00:26:42;100583.00;;;7.80;100.00
53647;BME280;39550;52.230;5.194;2023-11-19T00:29:07;100577.84;;;7.80;100.00
53647;BME280;39550;52.230;5.194;2023-11-19T00:31:33;100565.88;;;7.79;100.00
53647;BME280;39550;52.230;5.194;2023-11-19T00:33:59;100576.13;;;7.79;99.93
53647;BME280;39550;52.230;5.194;2023-11-19T00:36:25;100565.88;;;7.79;100.00
53647;BME280;39550;52.230;5.194;2023-11-19T00:38:51;100557.31;;;7.77;100.00
53647;BME280;39550;52.230;5.194;2023-11-19T00:41:18;100555.59;;;7.79;100.00
53647;BME280;39550;52.230;5.194;2023-11-19T00:43:44;100568.53;;;7.84;100.00
53647;BME280;39550;52.230;5.194;2023-11-19T00:46:10;100562.50;;;7.83;99.98
53647;BME280;39550;52.230;5.194;2023-11-19T00:48:39;100571.94;;;7.86;100.00
53647;BME280;39550;52.230;5.194;2023-11-19T00:51:05;100565.13;;;7.85;99.76
53647;BME280;39550;52.230;5.194;2023-11-19T00:53:30;100570.25;;;7.85;99.80
53647;BME280;39550;52.230;5.194;2023-11-19T00:55:57;100574.53;;;7.88;100.00
53647;BME280;39550;52.230;5.194;2023-11-19T00:58:22;100564.28;;;7.88;100.00
53647;BME280;39550;52.230;5.194;2023-11-19T01:00:49;100567.72;;;7.87;100.00
53647;BME280;39550;52.230;5.194;2023-11-19T01:03:15;100563.44;;;7.89;100.00
53647;BME280;39550;52.230;5.194;2023-11-19T01:05:46;100562.66;;;7.93;100.00
53647;BME280;39550;52.230;5.194;2023-11-19T01:08:12;100560.09;;;7.93;100.00
53647;BME280;39550;52.230;5.194;2023-11-19T01:10:38;100563.47;;;7.92;100.00
53647;BME280;39550;52.230;5.194;2023-11-19T01:13:04;100542.88;;;7.84;100.00
53647;BME280;39550;52.230;5.194;2023-11-19T01:15:31;100548.09;;;7.92;100.00
53647;BME280;39550;52.230;5.194;2023-11-19T01:17:57;100545.53;;;7.92;100.00
53647;BME280;39550;52.230;5.194;2023-11-19T01:20:22;100535.25;;;7.92;100.00
53647;BME280;39550;52.230;5.194;2023-11-19T01:22:49;100548.94;;;7.91;100.00
53647;BME280;39550;52.230;5.194;2023-11-19T01:25:14;100526.75;;;7.94;100.00
53647;BME280;39550;52.230;5.194;2023-11-19T01:27:39;100528.47;;;7.94;100.00
53647;BME280;39550;52.230;5.194;2023-11-19T01:30:05;100531.03;;;7.95;100.00
53647;BME280;39550;52.230;5.194;2023-11-19T01:32:35;100542.16;;;7.96;100.00
53647;BME280;39550;52.230;5.194;2023-11-19T01:35:03;100538.75;;;7.97;100.00
53647;BME280;39550;52.230;5.194;2023-11-19T01:37:29;100533.63;;;7.97;100.00
53647;BME280;39550;52.230;5.194;2023-11-19T01:39:54;100531.91;;;7.97;100.00
53647;BME280;39550;52.230;5.194;2023-11-19T01:42:20;100540.50;;;7.98;100.00
53647;BME280;39550;52.230;5.194;2023-11-19T01:44:59;100531.97;;;7.99;100.00
53647;BME280;39550;52.230;5.194;2023-11-19T01:47:28;100537.94;;;7.99;100.00
53647;BME280;39550;52.230;5.194;2023-11-19T01:49:56;100543.91;;;8.00;100.00
53647;BME280;39550;52.230;5.194;2023-11-19T01:52:22;100533.66;;;8.00;100.00
53647;BME280;39550;52.230;5.194;2023-11-19T01:54:48;100543.91;;;8.00;100.00
53647;BME280;39550;52.230;5.194;2023-11-19T01:57:14;100547.34;;;7.99;100.00
53647;BME280;39550;52.230;5.194;2023-11-19T01:59:40;100549.06;;;8.00;100.00
53647;BME280;39550;52.230;5.194;2023-11-19T02:02:07;100551.59;;;7.97;100.00
53647;BME280;39550;52.230;5.194;2023-11-19T02:04:32;100545.63;;;7.98;100.00
53647;BME280;39550;52.230;5.194;2023-11-19T02:06:59;100542.22;;;7.99;100.00
53647;BME280;39550;52.230;5.194;2023-11-19T02:09:24;100541.31;;;7.97;100.00
53647;BME280;39550;52.230;5.194;2023-11-19T02:11:50;100528.50;;;7.97;100.00
53647;BME280;39550;52.230;5.194;2023-11-19T02:14:17;100537.03;;;7.96;100.00
53647;BME280;39550;52.230;5.194;2023-11-19T02:16:43;100548.19;;;7.98;100.00
53647;BME280;39550;52.230;5.194;2023-11-19T02:19:08;100553.34;;;7.99;100.00
53647;BME280;39550;52.230;5.194;2023-11-19T02:21:35;100543.06;;;7.99;100.00
53647;BME280;39550;52.230;5.194;2023-11-19T02:24:05;100554.16;;;7.97;100.00
53647;BME280;39550;52.230;5.194;2023-11-19T02:27:02;100555.88;;;7.98;100.00
53647;BME280;39550;52.230;5.194;2023-11-19T02:29:33;100554.16;;;7.97;100.00
53647;BME280;39550;52.230;5.194;2023-11-19T02:32:00;100558.44;;;7.98;100.00
53647;BME280;39550;52.230;5.194;2023-11-19T02:34:28;100557.63;;;7.99;100.00
53647;BME280;39550;52.230;5.194;2023-11-19T02:36:53;100561.00;;;7.98;100.00
53647;BME280;39550;52.230;5.194;2023-11-19T02:39:19;100546.47;;;7.98;100.00
53647;BME280;39550;52.230;5.194;2023-11-19T02:41:47;100531.97;;;7.99;100.00
53647;BME280;39550;52.230;5.194;2023-11-19T02:44:12;100537.09;;;7.99;100.00
53647;BME280;39550;52.230;5.194;2023-11-19T02:46:38;100530.22;;;7.98;100.00
53647;BME280;39550;52.230;5.194;2023-11-19T02:49:07;100540.50;;;7.99;100.00
53647;BME280;39550;52.230;5.194;2023-11-19T02:51:33;100545.66;;;8.01;100.00
53647;BME280;39550;52.230;5.194;2023-11-19T02:54:00;100540.53;;;8.01;100.00
53647;BME280;39550;52.230;5.194;2023-11-19T02:56:25;100543.91;;;8.00;100.00
53647;BME280;39550;52.230;5.194;2023-11-19T02:58:51;100549.94;;;8.02;100.00
53647;BME280;39550;52.230;5.194;2023-11-19T03:01:24;100535.41;;;8.01;100.00
53647;BME280;39550;52.230;5.194;2023-11-19T03:03:54;100542.25;;;8.02;100.00
53647;BME280;39550;52.230;5.194;2023-11-19T03:06:22;100548.25;;;8.02;100.00
53647;BME280;39550;52.230;5.194;2023-11-19T03:08:48;100537.13;;;8.02;100.00
53647;BME280;39550;52.230;5.194;2023-11-19T03:11:14;100539.69;;;8.02;100.00
53647;BME280;39550;52.230;5.194;2023-11-19T03:13:39;100547.38;;;8.02;100.00
53647;BME280;39550;52.230;5.194;2023-11-19T03:16:05;100536.28;;;8.03;100.00
53647;BME280;39550;52.230;5.194;2023-11-19T03:18:30;100540.56;;;8.04;100.00
53647;BME280;39550;52.230;5.194;2023-11-19T03:20:56;100538.84;;;8.03;100.00
53647;BME280;39550;52.230;5.194;2023-11-19T03:23:22;100545.69;;;8.04;100.00
53647;BME280;39550;52.230;5.194;2023-11-19T03:25:48;100528.59;;;8.03;100.00
53647;BME280;39550;52.230;5.194;2023-11-19T03:28:13;100532.84;;;8.02;100.00
53647;BME280;39550;52.230;5.194;2023-11-19T03:30:38;100532.00;;;8.02;100.00
53647;BME280;39550;52.230;5.194;2023-11-19T03:33:04;100526.03;;;8.03;100.00
53647;BME280;39550;52.230;5.194;2023-11-19T03:35:29;100528.59;;;8.03;100.00
53647;BME280;39550;52.230;5.194;2023-11-19T03:37:55;100525.16;;;8.02;100.00
53647;BME280;39550;52.230;5.194;2023-11-19T03:40:21;100517.44;;;8.02;100.00
53647;BME280;39550;52.230;5.194;2023-11-19T03:42:46;100526.03;;;8.03;100.00
53647;BME280;39550;52.230;5.194;2023-11-19T03:45:12;100520.84;;;8.01;100.00
53647;BME280;39550;52.230;5.194;2023-11-19T03:47:37;100535.41;;;8.02;100.00
53647;BME280;39550;52.230;5.194;2023-11-19T03:50:04;100533.72;;;8.03;100.00
53647;BME280;39550;52.230;5.194;2023-11-19T03:52:29;100544.00;;;8.03;100.00
53647;BME280;39550;52.230;5.194;2023-11-19T03:54:55;100546.56;;;8.05;100.00
53647;BME280;39550;52.230;5.194;2023-11-19T03:57:22;100543.09;;;8.01;100.00
53647;BME280;39550;52.230;5.194;2023-11-19T03:59:47;100561.97;;;8.05;100.00
53647;BME280;39550;52.230;5.194;2023-11-19T04:02:13;100544.00;;;8.03;100.00
53647;BME280;39550;52.230;5.194;2023-11-19T04:04:39;100541.34;;;8.00;100.00
53647;BME280;39550;52.230;5.194;2023-11-19T04:07:05;100544.84;;;8.04;100.00
53647;BME280;39550;52.230;5.194;2023-11-19T04:09:30;100549.13;;;8.03;100.00
53647;BME280;39550;52.230;5.194;2023-11-19T04:11:58;100547.41;;;8.05;100.00
53647;BME280;39550;52.230;5.194;2023-11-19T04:14:23;100544.00;;;8.03;100.00
53647;BME280;39550;52.230;5.194;2023-11-19T04:16:48;100550.81;;;8.02;100.00
53647;BME280;39550;52.230;5.194;2023-11-19T04:19:14;100561.09;;;8.04;100.00
53647;BME280;39550;52.230;5.194;2023-11-19T04:21:40;100555.09;;;8.04;100.00
53647;BME280;39550;52.230;5.194;2023-11-19T04:24:06;100559.31;;;8.00;100.00
53647;BME280;39550;52.230;5.194;2023-11-19T04:26:32;100555.94;;;8.04;100.00
53647;BME280;39550;52.230;5.194;2023-11-19T04:28:57;100561.97;;;8.05;100.00
53647;BME280;39550;52.230;5.194;2023-11-19T04:31:24;100550.81;;;8.04;100.00
53647;BME280;39550;52.230;5.194;2023-11-19T04:33:53;100557.69;;;8.05;100.00
53647;BME280;39550;52.230;5.194;2023-11-19T04:36:19;100553.38;;;8.04;100.00
53647;BME280;39550;52.230;5.194;2023-11-19T04:38:45;100553.34;;;8.01;100.00
53647;BME280;39550;52.230;5.194;2023-11-19T04:41:11;100547.38;;;8.00;100.00
53647;BME280;39550;52.230;5.194;2023-11-19T04:43:36;100555.09;;;8.04;100.00
53647;BME280;39550;52.230;5.194;2023-11-19T04:46:03;100561.97;;;8.05;100.00
53647;BME280;39550;52.230;5.194;2023-11-19T04:48:29;100555.13;;;8.05;100.00
53647;BME280;39550;52.230;5.194;2023-11-19T04:50:54;100561.97;;;8.05;100.00
53647;BME280;39550;52.230;5.194;2023-11-19T04:53:19;100549.97;;;8.04;100.00
53647;BME280;39550;52.230;5.194;2023-11-19T04:55:45;100559.41;;;8.06;100.00
53647;BME280;39550;52.230;5.194;2023-11-19T04:58:10;100547.41;;;8.05;100.00
53647;BME280;39550;52.230;5.194;2023-11-19T05:00:35;100552.56;;;8.05;100.00
53647;BME280;39550;52.230;5.194;2023-11-19T05:03:01;100552.56;;;8.05;100.00
53647;BME280;39550;52.230;5.194;2023-11-19T05:05:26;100554.28;;;8.06;100.00
53647;BME280;39550;52.230;5.194;2023-11-19T05:07:52;100554.28;;;8.06;100.00
53647;BME280;39550;52.230;5.194;2023-11-19T05:10:17;100558.59;;;8.07;100.00
53647;BME280;39550;52.230;5.194;2023-11-19T05:12:43;100555.13;;;8.07;100.00
53647;BME280;39550;52.230;5.194;2023-11-19T05:15:08;100559.41;;;8.06;100.00
53647;BME280;39550;52.230;5.194;2023-11-19T05:17:34;100559.41;;;8.06;100.00
53647;BME280;39550;52.230;5.194;2023-11-19T05:19:59;100562.00;;;8.08;100.00
53647;BME280;39550;52.230;5.194;2023-11-19T05:22:24;100558.59;;;8.07;100.00
53647;BME280;39550;52.230;5.194;2023-11-19T05:24:51;100555.13;;;8.05;100.00
53647;BME280;39550;52.230;5.194;2023-11-19T05:27:16;100551.72;;;8.06;100.00
53647;BME280;39550;52.230;5.194;2023-11-19T05:29:42;100563.66;;;8.06;100.00
53647;BME280;39550;52.230;5.194;2023-11-19T05:32:09;100555.91;;;8.01;100.00
53647;BME280;39550;52.230;5.194;2023-11-19T05:34:34;100562.81;;;8.05;100.00
53647;BME280;39550;52.230;5.194;2023-11-19T05:36:59;100559.41;;;8.06;100.00
53647;BME280;39550;52.230;5.194;2023-11-19T05:39:25;100554.28;;;8.06;100.00
53647;BME280;39550;52.230;5.194;2023-11-19T05:41:51;100562.81;;;8.05;100.00
53647;BME280;39550;52.230;5.194;2023-11-19T05:44:17;100567.94;;;8.05;100.00
53647;BME280;39550;52.230;5.194;2023-11-19T05:46:42;100562.81;;;8.05;100.00
53647;BME280;39550;52.230;5.194;2023-11-19T05:49:11;100573.09;;;8.07;100.00
53647;BME280;39550;52.230;5.194;2023-11-19T05:51:40;100566.25;;;8.06;100.00
53647;BME280;39550;52.230;5.194;2023-11-19T05:54:09;100578.25;;;8.08;100.00
53647;BME280;39550;52.230;5.194;2023-11-19T05:56:36;100565.44;;;8.10;100.00
53647;BME280;39550;52.230;5.194;2023-11-19T05:59:02;100562.00;;;8.08;100.00
53647;BME280;39550;52.230;5.194;2023-11-19T06:01:32;100561.16;;;8.07;100.00
53647;BME280;39550;52.230;5.194;2023-11-19T06:03:57;100563.66;;;8.06;100.00
53647;BME280;39550;52.230;5.194;2023-11-19T06:06:22;100563.66;;;8.06;100.00
53647;BME280;39550;52.230;5.194;2023-11-19T06:08:48;100561.16;;;8.07;100.00
53647;BME280;39550;52.230;5.194;2023-11-19T06:11:13;100572.28;;;8.08;100.00
53647;BME280;39550;52.230;5.194;2023-11-19T06:13:43;100574.00;;;8.09;100.00
53647;BME280;39550;52.230;5.194;2023-11-19T06:16:08;100568.00;;;8.08;100.00
53647;BME280;39550;52.230;5.194;2023-11-19T06:18:34;100553.38;;;8.02;100.00
53647;BME280;39550;52.230;5.194;2023-11-19T06:20:59;100569.69;;;8.06;100.00
53647;BME280;39550;52.230;5.194;2023-11-19T06:23:24;100571.41;;;8.07;100.00
53647;BME280;39550;52.230;5.194;2023-11-19T06:25:50;100579.13;;;8.07;100.00
53647;BME280;39550;52.230;5.194;2023-11-19T06:28:15;100573.94;;;8.06;100.00
53647;BME280;39550;52.230;5.194;2023-11-19T06:30:40;100573.13;;;8.08;100.00
53647;BME280;39550;52.230;5.194;2023-11-19T06:33:06;100569.69;;;8.08;100.00
53647;BME280;39550;52.230;5.194;2023-11-19T06:35:32;100560.25;;;8.05;100.00
53647;BME280;39550;52.230;5.194;2023-11-19T06:38:02;100570.56;;;8.08;99.92
53647;BME280;39550;52.230;5.194;2023-11-19T06:40:30;100567.13;;;8.08;100.00
53647;BME280;39550;52.230;5.194;2023-11-19T06:42:55;100575.69;;;8.08;100.00
53647;BME280;39550;52.230;5.194;2023-11-19T06:45:21;100576.59;;;8.10;100.00
53647;BME280;39550;52.230;5.194;2023-11-19T06:47:47;100582.56;;;8.11;99.58
53647;BME280;39550;52.230;5.194;2023-11-19T06:50:12;100575.66;;;8.07;99.96
53647;BME280;39550;52.230;5.194;2023-11-19T06:52:37;100586.84;;;8.10;100.00
53647;BME280;39550;52.230;5.194;2023-11-19T06:55:04;100581.72;;;8.10;100.00
53647;BME280;39550;52.230;5.194;2023-11-19T06:57:29;100584.28;;;8.10;100.00
53647;BME280;39550;52.230;5.194;2023-11-19T06:59:57;100576.56;;;8.07;100.00
53647;BME280;39550;52.230;5.194;2023-11-19T07:02:22;100586.03;;;8.11;100.00
53647;BME280;39550;52.230;5.194;2023-11-19T07:04:48;100590.28;;;8.12;100.00
53647;BME280;39550;52.230;5.194;2023-11-19T07:07:13;100591.97;;;8.10;100.00
53647;BME280;39550;52.230;5.194;2023-11-19T07:09:40;100597.97;;;8.12;100.00
53647;BME280;39550;52.230;5.194;2023-11-19T07:12:06;100583.47;;;8.13;99.77
53647;BME280;39550;52.230;5.194;2023-11-19T07:14:32;100591.97;;;8.09;100.00
53647;BME280;39550;52.230;5.194;2023-11-19T07:16:57;100602.28;;;8.13;100.00
53647;BME280;39550;52.230;5.194;2023-11-19T07:19:22;100600.56;;;8.12;100.00
53647;BME280;39550;52.230;5.194;2023-11-19T07:21:48;100611.69;;;8.13;100.00
53647;BME280;39550;52.230;5.194;2023-11-19T07:24:14;100617.69;;;8.13;100.00
53647;BME280;39550;52.230;5.194;2023-11-19T07:26:46;100610.00;;;8.15;100.00
53647;BME280;39550;52.230;5.194;2023-11-19T07:29:15;100624.56;;;8.14;99.96
53647;BME280;39550;52.230;5.194;2023-11-19T07:31:43;100613.41;;;8.14;100.00
53647;BME280;39550;52.230;5.194;2023-11-19T07:34:11;100616.88;;;8.16;100.00
53647;BME280;39550;52.230;5.194;2023-11-19T07:36:37;100622.84;;;8.16;100.00
53647;BME280;39550;52.230;5.194;2023-11-19T07:39:04;100622.84;;;8.16;100.00
53647;BME280;39550;52.230;5.194;2023-11-19T07:41:30;100624.59;;;8.17;99.79
53647;BME280;39550;52.230;5.194;2023-11-19T07:43:56;100622.03;;;8.19;99.91
53647;BME280;39550;52.230;5.194;2023-11-19T07:46:21;100624.63;;;8.21;100.00
53647;BME280;39550;52.230;5.194;2023-11-19T07:48:46;100626.34;;;8.22;99.88
53647;BME280;39550;52.230;5.194;2023-11-19T07:51:12;100622.88;;;8.19;99.81
53647;BME280;39550;52.230;5.194;2023-11-19T07:53:39;100628.03;;;8.19;100.00
53647;BME280;39550;52.230;5.194;2023-11-19T07:56:06;100617.75;;;8.19;99.84
53647;BME280;39550;52.230;5.194;2023-11-19T07:58:32;100610.94;;;8.20;99.92
53647;BME280;39550;52.230;5.194;2023-11-19T08:00:57;100615.25;;;8.23;99.83
53647;BME280;39550;52.230;5.194;2023-11-19T08:03:23;100610.94;;;8.20;100.00
53647;BME280;39550;52.230;5.194;2023-11-19T08:05:48;100609.22;;;8.21;99.88
53647;BME280;39550;52.230;5.194;2023-11-19T08:08:14;100614.38;;;8.22;99.99
53647;BME280;39550;52.230;5.194;2023-11-19T08:10:40;100605.00;;;8.24;100.00
53647;BME280;39550;52.230;5.194;2023-11-19T08:13:06;100604.09;;;8.21;100.00
53647;BME280;39550;52.230;5.194;2023-11-19T08:15:32;100600.69;;;8.22;100.00
53647;BME280;39550;52.230;5.194;2023-11-19T08:17:58;100605.81;;;8.22;100.00
53647;BME280;39550;52.230;5.194;2023-11-19T08:20:23;100605.81;;;8.22;100.00
53647;BME280;39550;52.230;5.194;2023-11-19T08:22:49;100609.25;;;8.22;100.00
53647;BME280;39550;52.230;5.194;2023-11-19T08:25:14;100613.56;;;8.25;99.92
53647;BME280;39550;52.230;5.194;2023-11-19T08:27:40;100620.44;;;8.26;99.82
53647;BME280;39550;52.230;5.194;2023-11-19T08:30:06;100624.72;;;8.27;99.86
53647;BME280;39550;52.230;5.194;2023-11-19T08:32:32;100625.63;;;8.30;100.00
53647;BME280;39550;52.230;5.194;2023-11-19T08:34:57;100629.03;;;8.29;99.77
53647;BME280;39550;52.230;5.194;2023-11-19T08:37:22;100629.06;;;8.31;99.94
53647;BME280;39550;52.230;5.194;2023-11-19T08:39:48;100621.34;;;8.31;100.00
53647;BME280;39550;52.230;5.194;2023-11-19T08:42:14;100629.91;;;8.30;99.79
53647;BME280;39550;52.230;5.194;2023-11-19T08:44:39;100627.34;;;8.31;100.00
53647;BME280;39550;52.230;5.194;2023-11-19T08:47:08;100632.47;;;8.31;99.99
53647;BME280;39550;52.230;5.194;2023-11-19T08:49:34;100633.34;;;8.32;99.89
53647;BME280;39550;52.230;5.194;2023-11-19T08:51:59;100640.19;;;8.33;99.77
53647;BME280;39550;52.230;5.194;2023-11-19T08:54:25;100635.06;;;8.33;99.84
53647;BME280;39550;52.230;5.194;2023-11-19T08:56:50;100623.13;;;8.35;99.35
53647;BME280;39550;52.230;5.194;2023-11-19T08:59:16;100626.53;;;8.34;99.82
53647;BME280;39550;52.230;5.194;2023-11-19T09:01:41;100629.16;;;8.39;99.70
53647;BME280;39550;52.230;5.194;2023-11-19T09:04:07;100631.69;;;8.37;98.98
53647;BME280;39550;52.230;5.194;2023-11-19T09:06:32;100629.97;;;8.36;99.38
53647;BME280;39550;52.230;5.194;2023-11-19T09:08:58;100623.13;;;8.35;99.80
53647;BME280;39550;52.230;5.194;2023-11-19T09:11:27;100630.81;;;8.33;99.84
53647;BME280;39550;52.230;5.194;2023-11-19T09:13:52;100617.94;;;8.32;99.80
53647;BME280;39550;52.230;5.194;2023-11-19T09:16:18;100617.94;;;8.32;99.39
53647;BME280;39550;52.230;5.194;2023-11-19T09:18:43;100617.91;;;8.30;100.00
53647;BME280;39550;52.230;5.194;2023-11-19T09:21:12;100619.75;;;8.39;99.73
53647;BME280;39550;52.230;5.194;2023-11-19T09:23:38;100620.66;;;8.44;99.33
53647;BME280;39550;52.230;5.194;2023-11-19T09:26:08;100620.72;;;8.46;98.89
53647;BME280;39550;52.230;5.194;2023-11-19T09:28:34;100621.59;;;8.48;99.32
53647;BME280;39550;52.230;5.194;2023-11-19T09:30:59;100623.38;;;8.54;99.28
53647;BME280;39550;52.230;5.194;2023-11-19T09:33:24;100626.78;;;8.52;98.71
53647;BME280;39550;52.230;5.194;2023-11-19T09:35:50;100627.59;;;8.48;98.80
53647;BME280;39550;52.230;5.194;2023-11-19T09:38:16;100618.19;;;8.47;99.15
53647;BME280;39550;52.230;5.194;2023-11-19T09:40:42;100625.03;;;8.48;98.96
53647;BME280;39550;52.230;5.194;2023-11-19T09:43:07;100620.78;;;8.50;99.24
53647;BME280;39550;52.230;5.194;2023-11-19T09:45:47;100618.19;;;8.47;98.98
53647;BME280;39550;52.230;5.194;2023-11-19T09:48:16;100625.00;;;8.45;98.81
53647;BME280;39550;52.230;5.194;2023-11-19T09:50:42;100615.50;;;8.43;98.82
53647;BME280;39550;52.230;5.194;2023-11-19T09:53:07;100612.97;;;8.44;98.81
53647;BME280;39550;52.230;5.194;2023-11-19T09:55:33;100612.09;;;8.44;99.11
53647;BME280;39550;52.230;5.194;2023-11-19T09:57:58;100608.69;;;8.43;99.50
53647;BME280;39550;52.230;5.194;2023-11-19T10:00:26;100615.53;;;8.44;99.49
53647;BME280;39550;52.230;5.194;2023-11-19T10:02:53;100608.69;;;8.43;99.24
53647;BME280;39550;52.230;5.194;2023-11-19T10:05:20;100611.31;;;8.46;99.45
53647;BME280;39550;52.230;5.194;2023-11-19T10:07:48;100607.00;;;8.45;99.13
53647;BME280;39550;52.230;5.194;2023-11-19T10:10:14;100599.31;;;8.45;99.20
53647;BME280;39550;52.230;5.194;2023-11-19T10:12:47;100607.03;;;8.47;99.37
53647;BME280;39550;52.230;5.194;2023-11-19T10:15:17;100598.47;;;8.46;99.32
53647;BME280;39550;52.230;5.194;2023-11-19T10:17:45;100603.63;;;8.48;99.02
53647;BME280;39550;52.230;5.194;2023-11-19T10:20:11;100597.66;;;8.47;99.15
53647;BME280;39550;52.230;5.194;2023-11-19T10:22:37;100614.75;;;8.48;99.09
53647;BME280;39550;52.230;5.194;2023-11-19T10:25:02;100601.91;;;8.48;99.20
53647;BME280;39550;52.230;5.194;2023-11-19T10:27:27;100599.34;;;8.50;99.02
53647;BME280;39550;52.230;5.194;2023-11-19T10:29:53;100607.13;;;8.53;98.88
53647;BME280;39550;52.230;5.194;2023-11-19T10:32:18;100604.59;;;8.58;98.84
53647;BME280;39550;52.230;5.194;2023-11-19T10:34:43;100602.91;;;8.60;98.50
53647;BME280;39550;52.230;5.194;2023-11-19T10:37:27;100602.06;;;8.59;98.58
53647;BME280;39550;52.230;5.194;2023-11-19T10:39:53;100602.88;;;8.58;98.47
53647;BME280;39550;52.230;5.194;2023-11-19T10:42:22;100607.13;;;8.53;99.05
53647;BME280;39550;52.230;5.194;2023-11-19T10:44:47;100609.75;;;8.58;99.32
53647;BME280;39550;52.230;5.194;2023-11-19T10:47:18;100615.06;;;8.73;98.90
53647;BME280;39550;52.230;5.194;2023-11-19T10:49:44;100601.34;;;8.71;98.30
53647;BME280;39550;52.230;5.194;2023-11-19T10:52:11;100593.63;;;8.69;98.62
53647;BME280;39550;52.230;5.194;2023-11-19T10:54:43;100595.34;;;8.72;98.96
53647;BME280;39550;52.230;5.194;2023-11-19T10:57:09;100591.09;;;8.74;98.80
53647;BME280;39550;52.230;5.194;2023-11-19T10:59:37;100603.06;;;8.72;98.01
53647;BME280;39550;52.230;5.194;2023-11-19T11:02:07;100603.91;;;8.69;98.32
53647;BME280;39550;52.230;5.194;2023-11-19T11:04:39;100596.22;;;8.71;98.26
53647;BME280;39550;52.230;5.194;2023-11-19T11:07:07;100597.09;;;8.75;98.36
53647;BME280;39550;52.230;5.194;2023-11-19T11:09:34;100597.09;;;8.76;98.65
53647;BME280;39550;52.230;5.194;2023-11-19T11:12:00;100595.41;;;8.75;98.35
53647;BME280;39550;52.230;5.194;2023-11-19T11:14:27;100592.84;;;8.77;98.50
53647;BME280;39550;52.230;5.194;2023-11-19T11:16:53;100588.56;;;8.77;98.27
53647;BME280;39550;52.230;5.194;2023-11-19T11:19:19;100585.13;;;8.75;98.40
53647;BME280;39550;52.230;5.194;2023-11-19T11:21:50;100585.16;;;8.78;98.73
53647;BME280;39550;52.230;5.194;2023-11-19T11:30:08;100584.31;;;8.79;98.59
53647;BME280;39550;52.230;5.194;2023-11-19T11:32:45;100582.59;;;8.81;98.66
53647;BME280;39550;52.230;5.194;2023-11-19T11:35:25;100585.28;;;8.89;98.03
53647;BME280;39550;52.230;5.194;2023-11-19T11:38:06;100583.59;;;8.93;97.86
53647;BME280;39550;52.230;5.194;2023-11-19T11:40:34;100573.31;;;8.94;97.76
53647;BME280;39550;52.230;5.194;2023-11-19T11:42:59;100582.72;;;8.91;97.65
53647;BME280;39550;52.230;5.194;2023-11-19T11:45:38;100587.84;;;8.88;98.15
53647;BME280;39550;52.230;5.194;2023-11-19T11:48:05;100588.69;;;8.90;97.64
53647;BME280;39550;52.230;5.194;2023-11-19T11:50:34;100581.84;;;8.90;nan
53647;BME280;39550;52.230;5.194;2023-11-19T11:58:18;100570.72;;;8.93;98.18
53647;BME280;39550;52.230;5.194;2023-11-19T12:00:43;100564.72;;;8.91;97.94
53647;BME280;39550;52.230;5.194;2023-11-19T12:03:11;100566.41;;;8.89;97.84
53647;BME280;39550;52.230;5.194;2023-11-19T12:05:44;100560.44;;;8.90;97.97
53647;BME280;39550;52.230;5.194;2023-11-19T12:08:11;100561.34;;;8.95;98.02
53647;BME280;39550;52.230;5.194;2023-11-19T12:10:50;100554.47;;;8.95;97.97
53647;BME280;39550;52.230;5.194;2023-11-19T12:13:16;100556.22;;;8.95;97.61
53647;BME280;39550;52.230;5.194;2023-11-19T12:18:23;100554.47;;;8.94;97.89
53647;BME280;39550;52.230;5.194;2023-11-19T12:20:49;100557.84;;;8.90;97.99
53647;BME280;39550;52.230;5.194;2023-11-19T12:23:15;100556.94;;;8.84;97.65
53647;BME280;39550;52.230;5.194;2023-11-19T12:25:41;100555.28;;;8.90;97.97
53647;BME280;39550;52.230;5.194;2023-11-19T12:28:12;100562.19;;;8.94;98.16
53647;BME280;39550;52.230;5.194;2023-11-19T12:30:38;100563.91;;;8.95;98.04
53647;BME280;39550;52.230;5.194;2023-11-19T12:33:08;100556.19;;;8.92;98.20
53647;BME280;39550;52.230;5.194;2023-11-19T12:35:41;100566.53;;;8.99;97.85
53647;BME280;39550;52.230;5.194;2023-11-19T12:38:08;100572.56;;;9.03;97.69
53647;BME280;39550;52.230;5.194;2023-11-19T12:40:33;100586.22;;;8.99;98.04
53647;BME280;39550;52.230;5.194;2023-11-19T12:42:59;100580.16;;;8.94;98.49
53647;BME280;39550;52.230;5.194;2023-11-19T12:45:34;100565.66;;;8.96;97.88
53647;BME280;39550;52.230;5.194;2023-11-19T12:48:09;100561.34;;;8.96;98.33
53647;BME280;39550;52.230;5.194;2023-11-19T12:50:56;100570.78;;;8.96;98.41
53647;BME280;39550;52.230;5.194;2023-11-19T12:53:23;100570.78;;;8.96;98.21
53647;BME280;39550;52.230;5.194;2023-11-19T12:55:50;100572.50;;;8.97;98.16
53647;BME280;39550;52.230;5.194;2023-11-19T12:58:35;100573.38;;;8.99;97.52
53647;BME280;39550;52.230;5.194;2023-11-19T13:01:06;100557.97;;;9.02;97.85
53647;BME280;39550;52.230;5.194;2023-11-19T13:03:33;100555.38;;;8.99;97.45
53647;BME280;39550;52.230;5.194;2023-11-19T13:06:05;100563.94;;;8.98;97.88
53647;BME280;39550;52.230;5.194;2023-11-19T13:08:40;100553.66;;;8.98;97.59